Airfield :
LOGIN :

Register | Disclaimer

   EN    FR    IT 

 










Legend :    VFR   Marginal VFR   IFR   Intensive IFR   Very Intensive IFR
Visi :
Ceiling :
>= 8 km
>= 3000ft
5 to 8 km
1000 to 3000 ft
1500m to 5 km
500 to 1000 ft
800 to 1500m
200 to 500 ft
< 800m
< 200 ft
Symbols :   Thunderstorms  Fog  Heavy snow  Heavy precipitations  Wind > 20 kt
SIGMETs :     Misc.  Thunderstorms  Icing  Turbulence  Mountain Waves  Volcanic Ashes







- Airport Elevation : 121 ft
- IATA code : HUY
- Download approach charts


EGNJ - Humberside

CURRENT METAR :
  • 191120Z 28003KT 1800 -RA BKN002 09/09 Q1015

EXPIRED METARs :
  • 191050Z 26004KT 1800 -RA BKN002 08/08 Q1015
  • 191020Z 25004KT 1800 -RA SCT003 BKN006 08/08 Q1015
  • 190950Z 21006KT 1800 -RA SCT003 BKN006 08/08 Q1015
  • 190920Z 21006KT 2000 -RA SCT003 BKN008 08/08 Q1015
  • 190850Z 21007KT 2000 -RA SCT003 BKN008 07/07 Q1015
  • 190820Z 21007KT 2000 -RA SCT003 BKN008 07/07 Q1015

TAF TAF EGNJ
Valid from the 19 at 09:00 until the 19 at 18:00 UTC


190807Z 1909/1918 26007KT 3000 -RADZ BR BKN008
TEMPO 1909/1918 1200 RADZ BKN002
ATIS : +44 1652 682 020
No reported NOTAMs for that airfield.



MET'MAP, your aeronautical weather chart ! - Copyright ORBIFLY December 2007 - Disclaimer

ORBIFLY MET'MAP TEAM :

Programming & Development : Alexandra Zaïnal
Concept & Development : Baudouin d'Aumeries
Co-Development & Prog : Marc-Olivier Méhu
Technical & hardware support : Manuel Goepfert

Contact : metmap@orbifly.com




SOURCES & CREDITS :

   NOAA